Time;durP1;ratioP1;P1;durP2;ratioP2;P2;SDS_P1;SDS_P2;PMS_P1;PMS_P2;Temp;Humidity;BMP_temperature;BMP_pressure;BME280_temperature;BME280_humidity;BME280_pressure;Samples;Min_cycle;Max_cycle;Signal;HPM_P1;HPM_P2
2022/08/20 00:08:59;;;;;;;4.78;4.38;;;27.00;53.20;;;;;;20601888;28;20454;-72
2022/08/20 00:19:00;;;;;;;4.78;3.50;;;26.70;53.80;;;;;;20617852;28;20043;-71
2022/08/20 00:29:01;;;;;;;5.37;3.63;;;26.50;54.20;;;;;;20616235;28;20121;-71
2022/08/20 00:39:01;;;;;;;4.50;3.80;;;26.40;54.70;;;;;;20647370;28;20305;-71
2022/08/20 00:49:06;;;;;;;3.90;3.50;;;26.20;55.00;;;;;;20631835;28;20038;-71
2022/08/20 00:59:10;;;;;;;5.07;4.40;;;26.10;55.30;;;;;;20615287;28;20042;-73
2022/08/20 01:09:10;;;;;;;4.17;3.77;;;26.00;55.50;;;;;;20613865;28;20042;-71
2022/08/20 01:19:12;;;;;;;4.27;3.87;;;26.00;55.80;;;;;;21142784;22;20051;-74
2022/08/20 01:29:18;;;;;;;3.67;3.35;;;25.90;56.00;;;;;;20888133;28;20341;-71
2022/08/20 01:39:32;;;;;;;5.32;3.97;;;25.80;56.10;;;;;;20870866;28;20041;-72
2022/08/20 01:49:33;;;;;;;;;;;25.80;56.30;;;;;;20872817;28;20032;-71
2022/08/20 01:59:35;;;;;;;5.78;3.88;;;25.70;56.30;;;;;;20887772;28;19990;-71
2022/08/20 02:09:37;;;;;;;5.32;4.05;;;25.60;56.40;;;;;;20886193;28;20029;-70
2022/08/20 02:19:40;;;;;;;4.63;4.13;;;25.60;56.50;;;;;;20869368;28;20037;-72
2022/08/20 02:29:41;;;;;;;5.38;4.28;;;25.60;56.70;;;;;;20868792;28;20082;-72
2022/08/20 02:39:42;;;;;;;5.75;4.25;;;25.50;56.80;;;;;;20880147;28;20509;-71
2022/08/20 02:49:42;;;;;;;4.57;3.83;;;25.50;56.90;;;;;;20868231;28;20040;-71
2022/08/20 02:59:44;;;;;;;5.13;4.63;;;25.40;56.90;;;;;;20883495;28;20335;-70
2022/08/20 03:09:44;;;;;;;4.93;4.32;;;25.40;57.00;;;;;;20884202;28;20399;-71
2022/08/20 03:19:45;;;;;;;4.38;3.97;;;25.40;57.10;;;;;;20882431;28;20070;-71
2022/08/20 03:29:45;;;;;;;6.95;4.43;;;25.40;57.20;;;;;;20898040;28;20120;-72
2022/08/20 03:39:46;;;;;;;4.38;3.95;;;25.30;57.20;;;;;;20881983;28;20033;-71
2022/08/20 03:49:46;;;;;;;4.45;4.05;;;25.30;57.20;;;;;;20880109;28;20068;-71
2022/08/20 03:59:47;;;;;;;4.95;4.00;;;25.30;57.30;;;;;;20879206;28;20049;-73
2022/08/20 04:09:47;;;;;;;4.05;3.65;;;25.20;57.90;;;;;;20879473;28;20040;-74
2022/08/20 04:19:48;;;;;;;4.20;3.80;;;25.20;57.20;;;;;;20879124;28;20045;-71
2022/08/20 04:29:49;;;;;;;4.32;3.58;;;25.20;57.30;;;;;;20877317;28;20098;-72
2022/08/20 04:50:10;;;;;;;4.20;3.70;;;25.20;57.30;;;;;;20894384;28;20033;-71
2022/08/20 05:00:14;;;;;;;4.50;4.00;;;25.10;57.30;;;;;;20889964;28;20406;-70
2022/08/20 05:10:16;;;;;;;4.45;3.60;;;25.10;57.30;;;;;;20891058;28;20106;-72
2022/08/20 05:20:17;;;;;;;3.95;3.53;;;25.00;57.30;;;;;;20873066;28;20051;-71
2022/08/20 05:30:18;;;;;;;4.63;3.58;;;25.00;57.30;;;;;;20889083;28;20041;-71
2022/08/20 05:40:21;;;;;;;3.97;3.25;;;25.00;57.30;;;;;;20888764;28;20045;-71
2022/08/20 05:50:22;;;;;;;4.72;3.60;;;25.00;57.40;;;;;;20888018;28;20387;-71
2022/08/20 06:00:22;;;;;;;5.80;4.20;;;24.90;57.40;;;;;;20886892;28;20037;-72
2022/08/20 06:10:23;;;;;;;4.67;3.73;;;25.00;57.50;;;;;;20870013;28;20037;-71
2022/08/20 06:20:24;;;;;;;4.40;3.75;;;24.90;57.60;;;;;;20870958;28;20041;-71
2022/08/20 06:30:25;;;;;;;5.00;3.90;;;24.90;57.60;;;;;;20869593;28;20064;-74
2022/08/20 06:40:27;;;;;;;4.20;3.60;;;24.90;57.70;;;;;;20885511;28;20487;-72
2022/08/20 06:50:34;;;;;;;4.38;3.60;;;24.90;57.80;;;;;;20885334;28;20025;-74
2022/08/20 07:00:35;;;;;;;4.40;3.53;;;24.90;57.80;;;;;;20852245;28;20041;-72
2022/08/20 07:10:35;;;;;;;3.78;3.38;;;24.80;57.80;;;;;;20868705;28;20086;-71
2022/08/20 07:20:37;;;;;;;5.28;4.13;;;24.80;57.90;;;;;;20871080;28;20044;-71
2022/08/20 07:41:05;;;;;;;3.80;3.38;;;24.80;58.10;;;;;;20901673;28;20123;-74
2022/08/20 07:51:06;;;;;;;4.32;3.40;;;24.70;58.20;;;;;;20897766;28;20025;-74
2022/08/20 08:01:06;;;;;;;4.05;3.35;;;24.70;58.30;;;;;;20897363;28;20190;-73
2022/08/20 08:11:07;;;;;;;7.95;3.58;;;24.70;58.30;;;;;;20883024;28;20036;-76
2022/08/20 08:21:07;;;;;;;4.80;3.45;;;24.70;59.20;;;;;;20863891;28;20115;-83
2022/08/20 08:31:08;;;;;;;5.65;4.15;;;24.70;58.70;;;;;;20863034;28;20029;-78
2022/08/20 08:41:20;;;;;;;2.85;2.47;;;24.70;58.60;;;;;;20903389;28;20048;-75
2022/08/20 08:51:29;;;;;;;3.22;2.88;;;24.70;58.60;;;;;;20879082;28;20135;-78
2022/08/20 09:01:30;;;;;;;6.15;3.80;;;24.70;58.60;;;;;;20876662;28;20058;-82
2022/08/20 09:11:32;;;;;;;3.63;3.13;;;24.70;58.70;;;;;;20860210;28;20033;-77
2022/08/20 09:21:33;;;;;;;3.10;2.70;;;24.70;58.80;;;;;;20857799;28;20083;-79
2022/08/20 09:31:33;;;;;;;3.15;2.30;;;24.70;59.00;;;;;;20873287;28;20074;-77
2022/08/20 09:41:34;;;;;;;3.37;2.40;;;24.70;59.10;;;;;;20873059;28;20048;-78
2022/08/20 09:51:34;;;;;;;2.80;2.50;;;24.70;59.90;;;;;;20872355;28;20366;-78
2022/08/20 10:01:35;;;;;;;3.80;2.50;;;24.70;59.40;;;;;;20871955;28;20048;-79
2022/08/20 10:11:36;;;;;;;3.42;2.70;;;24.70;59.70;;;;;;20855203;28;20029;-79
2022/08/20 10:21:37;;;;;;;3.95;3.10;;;24.60;60.20;;;;;;20866260;28;20067;-79
2022/08/20 10:31:38;;;;;;;4.75;2.83;;;24.70;60.40;;;;;;20855828;28;20033;-77
2022/08/20 10:41:39;;;;;;;3.33;2.50;;;24.60;60.70;;;;;;20875731;28;20139;-80
2022/08/20 10:51:39;;;;;;;4.07;2.97;;;24.70;60.90;;;;;;20903643;28;20068;-78
2022/08/20 11:01:40;;;;;;;3.75;2.58;;;24.60;61.40;;;;;;20986422;28;20348;-78
2022/08/20 11:11:40;;;;;;;3.97;3.45;;;24.60;62.30;;;;;;20927971;28;20033;-74
2022/08/20 11:21:41;;;;;;;5.60;3.42;;;24.70;62.50;;;;;;20901119;28;20483;-74
2022/08/20 11:31:42;;;;;;;5.05;2.67;;;24.60;62.70;;;;;;20919415;28;20095;-74
2022/08/20 11:41:42;;;;;;;2.90;2.20;;;24.70;62.60;;;;;;20965822;28;20127;-73
2022/08/20 11:51:43;;;;;;;3.15;2.00;;;24.70;62.40;;;;;;20951167;28;20029;-79
2022/08/20 12:01:44;;;;;;;3.40;2.65;;;24.60;62.20;;;;;;20943742;28;20045;-75
2022/08/20 12:11:45;;;;;;;3.10;2.53;;;24.70;62.20;;;;;;20944337;28;20039;-70
2022/08/20 12:21:45;;;;;;;4.45;2.20;;;24.70;62.00;;;;;;20962878;28;20784;-75
2022/08/20 12:31:46;;;;;;;3.40;2.03;;;24.60;61.90;;;;;;20963014;28;20028;-81
2022/08/20 12:41:46;;;;;;;2.80;2.08;;;24.60;61.70;;;;;;20924444;28;20049;-81
2022/08/20 12:51:47;;;;;;;2.20;1.58;;;24.60;61.80;;;;;;20894208;28;20360;-79
2022/08/20 13:01:47;;;;;;;3.67;2.30;;;24.60;62.00;;;;;;20860420;28;20045;-75
2022/08/20 13:11:48;;;;;;;3.78;1.98;;;24.60;61.90;;;;;;20860807;28;20052;-77
2022/08/20 13:21:48;;;;;;;2.22;1.42;;;24.60;61.70;;;;;;20890544;28;20036;-83
2022/08/20 13:31:49;;;;;;;1.75;1.20;;;24.60;61.50;;;;;;20859242;28;20024;-80
2022/08/20 13:41:49;;;;;;;1.60;1.25;;;24.60;61.30;;;;;;20876145;28;20071;-78
2022/08/20 13:51:50;;;;;;;2.03;1.20;;;24.60;61.20;;;;;;20889253;28;20387;-75
2022/08/20 14:01:51;;;;;;;2.35;1.38;;;24.50;61.20;;;;;;20839338;28;20543;-76
2022/08/20 14:11:51;;;;;;;1.33;0.98;;;24.50;61.20;;;;;;20855693;28;20087;-77
2022/08/20 14:21:52;;;;;;;1.50;0.90;;;24.50;61.40;;;;;;20871052;28;20044;-78
2022/08/20 14:31:54;;;;;;;1.00;0.90;;;24.60;61.40;;;;;;20890400;28;20086;-74
2022/08/20 14:41:55;;;;;;;1.65;0.90;;;24.60;61.30;;;;;;20826617;28;20300;-76
2022/08/20 14:52:07;;;;;;;2.95;0.90;;;24.50;61.00;;;;;;20918571;28;20433;-78
2022/08/20 15:02:12;;;;;;;2.30;1.33;;;24.60;61.00;;;;;;20837033;28;20044;-75
2022/08/20 15:12:12;;;;;;;1.20;0.90;;;24.60;60.90;;;;;;20831069;28;20029;-78
2022/08/20 15:22:13;;;;;;;1.17;1.02;;;24.70;60.80;;;;;;20837783;28;20044;-78
2022/08/20 15:32:13;;;;;;;2.50;0.80;;;24.60;60.70;;;;;;20819254;28;20419;-76
2022/08/20 15:42:14;;;;;;;1.15;0.80;;;24.70;60.80;;;;;;20872401;28;20393;-78
2022/08/20 15:52:15;;;;;;;1.60;0.88;;;24.70;60.60;;;;;;20863815;28;20582;-78
2022/08/20 16:02:37;;;;;;;2.97;1.20;;;24.80;60.40;;;;;;20876918;28;20037;-82
2022/08/20 16:12:38;;;;;;;2.25;1.35;;;24.90;60.20;;;;;;20863914;28;20086;-74
2022/08/20 16:22:43;;;;;;;2.50;1.10;;;25.00;60.10;;;;;;20866884;28;20049;-75
2022/08/20 16:32:51;;;;;;;2.08;1.00;;;25.10;60.10;;;;;;20823535;28;20044;-74
2022/08/20 16:42:53;;;;;;;1.45;1.10;;;25.20;60.00;;;;;;20839651;28;20029;-74
2022/08/20 16:52:54;;;;;;;1.25;1.08;;;25.20;59.90;;;;;;20936285;28;20704;-82
2022/08/20 17:03:06;;;;;;;3.05;1.17;;;25.10;59.90;;;;;;20924964;28;20045;-81
2022/08/20 17:13:12;;;;;;;2.28;1.10;;;25.10;60.10;;;;;;20939652;28;20035;-83
2022/08/20 17:23:20;;;;;;;1.85;1.35;;;25.10;60.20;;;;;;21146597;27;20414;-78
2022/08/20 17:33:33;;;;;;;2.55;0.95;;;25.10;60.30;;;;;;21135826;28;20093;-74
2022/08/20 17:43:33;;;;;;;2.38;1.00;;;25.00;60.20;;;;;;21106781;28;20048;-74
2022/08/20 17:53:36;;;;;;;1.27;0.90;;;25.00;60.30;;;;;;21095823;28;20402;-74
2022/08/20 18:03:36;;;;;;;3.08;1.10;;;24.90;60.30;;;;;;21088676;28;21057;-74
2022/08/20 18:13:50;;;;;;;1.45;1.15;;;24.90;60.50;;;;;;21105771;28;20031;-79
2022/08/20 18:24:01;;;;;;;1.10;0.83;;;24.90;60.50;;;;;;21127889;28;20031;-79
2022/08/20 18:34:13;;;;;;;1.55;0.98;;;24.90;60.60;;;;;;21127224;28;20127;-79
2022/08/20 18:44:26;;;;;;;1.60;1.08;;;24.80;60.70;;;;;;21081885;28;20497;-78
2022/08/20 18:54:29;;;;;;;1.50;1.25;;;24.80;60.80;;;;;;21111347;28;20031;-79
2022/08/20 19:04:30;;;;;;;2.85;1.30;;;24.70;60.90;;;;;;21146162;28;20040;-82
2022/08/20 19:14:58;;;;;;;4.10;1.10;;;24.70;61.00;;;;;;21127720;28;20040;-75
2022/08/20 19:24:59;;;;;;;1.92;1.10;;;24.70;61.20;;;;;;21075681;28;20040;-75
2022/08/20 19:35:02;;;;;;;2.70;1.20;;;24.70;61.20;;;;;;21074145;28;20089;-74
2022/08/20 19:45:05;;;;;;;1.13;0.80;;;24.60;61.20;;;;;;21037333;28;20147;-76
2022/08/20 19:55:16;;;;;;;1.45;0.90;;;24.60;61.40;;;;;;21108643;28;20491;-75
2022/08/20 20:05:17;;;;;;;2.53;1.10;;;24.60;61.40;;;;;;21142406;28;20572;-74
2022/08/20 20:15:18;;;;;;;1.70;0.98;;;24.60;61.30;;;;;;21143378;28;20115;-74
2022/08/20 20:25:29;;;;;;;1.20;1.00;;;24.50;61.10;;;;;;21106813;28;20047;-74
2022/08/20 20:35:32;;;;;;;1.48;1.10;;;24.50;61.00;;;;;;21065198;28;20131;-76
2022/08/20 20:45:39;;;;;;;1.83;1.10;;;24.50;60.90;;;;;;21033481;28;20063;-75
2022/08/20 20:55:41;;;;;;;1.20;1.00;;;24.50;60.80;;;;;;21038765;28;20040;-75
2022/08/20 21:05:42;;;;;;;1.10;1.00;;;24.50;60.70;;;;;;21054453;28;20043;-75
2022/08/20 21:15:42;;;;;;;1.75;0.77;;;24.50;60.60;;;;;;21053908;28;20036;-75
2022/08/20 21:25:43;;;;;;;1.58;0.77;;;24.40;60.40;;;;;;21053007;28;20060;-74
2022/08/20 21:35:43;;;;;;;1.08;0.73;;;24.40;60.30;;;;;;21053478;28;20432;-74
2022/08/20 21:45:44;;;;;;;1.27;0.93;;;24.50;60.30;;;;;;21019423;28;20039;-76
2022/08/20 21:55:44;;;;;;;1.50;0.93;;;24.40;60.10;;;;;;21069530;28;20058;-76
2022/08/20 22:05:45;;;;;;;1.90;0.90;;;24.40;60.00;;;;;;21061000;28;20767;-75
2022/08/20 22:15:46;;;;;;;2.47;0.90;;;24.40;59.90;;;;;;21050683;28;20028;-75
2022/08/20 22:25:47;;;;;;;2.45;1.00;;;24.40;59.70;;;;;;21049982;28;20063;-75
2022/08/20 22:35:49;;;;;;;1.10;0.90;;;24.40;59.60;;;;;;21049149;28;20060;-76
2022/08/20 22:45:53;;;;;;;1.90;0.90;;;24.30;59.50;;;;;;21048861;28;20086;-75
2022/08/20 22:55:53;;;;;;;1.13;0.88;;;24.30;59.40;;;;;;21047859;28;20035;-74
2022/08/20 23:05:54;;;;;;;3.05;0.82;;;24.30;59.40;;;;;;21046422;28;20035;-75
2022/08/20 23:15:54;;;;;;;0.95;0.68;;;24.30;59.30;;;;;;21045434;28;20038;-77
2022/08/20 23:25:55;;;;;;;2.75;0.85;;;24.30;59.20;;;;;;21045209;28;20064;-76
2022/08/20 23:35:56;;;;;;;3.35;0.82;;;24.30;59.20;;;;;;21044699;28;20402;-76
2022/08/20 23:45:57;;;;;;;0.77;0.70;;;24.20;59.10;;;;;;21027201;28;20036;-74
2022/08/20 23:55:58;;;;;;;1.10;0.77;;;24.20;59.00;;;;;;21041847;28;20136;-75
